Ifestos I — SV4139 — position and weather

sailwx.info

Track history (hours):
 
Tides and Currents Weather Stations Pressure Air Temp Water Temp Dewpoint Dewpoint Depression Visibility Wind Speed Wind Dir Waves Ship Positions

Ifestos I

Last reported at 2016-Jun-26 22:33 UTC. Time now 2016-Jun-26 22:45 UTC.
Position N 38°01' E 023°36'.

Length 30 m.

Type: Tug. MMSI: 237070500.

Date/timePositionNaut miles runAvg speedWind from/ knotsBaromVisibWave heightAir tempDewpointWater temp
2016-Jun-26 22:33N 38°01' E 023°36'0 0.0
2016-Jun-26 21:33N 38°01' E 023°36'0 0.0
2016-Jun-26 20:33N 38°01' E 023°36'0 0.0
2016-Jun-26 19:33N 38°01' E 023°36'0 0.0
2016-Jun-26 18:33N 38°01' E 023°36'0 0.0
2016-Jun-26 17:33N 38°01' E 023°36'0 0.0
2016-Jun-26 16:33N 38°01' E 023°36'2 1.6
2016-Jun-26 15:33N 38°01' E 023°33'1 1.1
2016-Jun-26 14:34N 38°02' E 023°32'0 0.3
2016-Jun-26 13:33N 38°02' E 023°32'4 4.2
2016-Jun-26 12:33N 37°58' E 023°33'0 0.0
2016-Jun-26 11:34N 37°58' E 023°33'0 0.0
2016-Jun-26 10:33N 37°58' E 023°33'2 1.7
2016-Jun-26 09:33N 37°57' E 023°35'1 1.2
2016-Jun-26 08:33N 37°57' E 023°37'0 0.0
2016-Jun-26 07:33N 37°57' E 023°37'4 4.0
2016-Jun-26 06:33N 38°00' E 023°33'1 1.1
2016-Jun-26 05:33N 38°01' E 023°32'5 5.0
2016-Jun-26 04:33N 37°57' E 023°36'1 0.0
2016-Jun-24 13:33N 37°57' E 023°37'0 0.0
2016-Jun-24 12:33N 37°57' E 023°37'0 0.0
2016-Jun-24 11:33N 37°57' E 023°37'0 0.0
2016-Jun-24 10:33N 37°57' E 023°37'0 0.0
2016-Jun-24 09:33N 37°57' E 023°37'1 0.6
2016-Jun-24 08:33N 37°57' E 023°36'1 0.7
2016-Jun-24 07:33N 37°56' E 023°36'1 0.3
2016-Jun-24 04:33N 37°57' E 023°35'1 1.4
2016-Jun-24 03:33N 37°57' E 023°37'0 0.0
2016-Jun-23 16:34N 37°57' E 023°37'0 0.0
2016-Jun-23 15:34N 37°57' E 023°37'0 0.0
2016-Jun-23 14:34N 37°57' E 023°37'0 0.0
2016-Jun-23 13:33N 37°57' E 023°37'0 0.0
2016-Jun-23 12:33N 37°57' E 023°37'0 0.0
2016-Jun-23 11:34N 37°57' E 023°37'0 0.0
2016-Jun-23 10:34N 37°57' E 023°37'3 2.6
2016-Jun-23 09:34N 37°57' E 023°33'4 4.4
2016-Jun-23 08:33N 38°01' E 023°36'0 0.0
2016-Jun-23 07:34N 38°01' E 023°36'0 0.0
2016-Jun-23 05:33N 38°01' E 023°36'0 0.0
2016-Jun-23 04:34N 38°01' E 023°36'0 0.0
2016-Jun-23 03:34N 38°01' E 023°36'0 0.0
2016-Jun-23 02:34N 38°01' E 023°36'0 0.0
2016-Jun-23 01:34N 38°01' E 023°36'0 0.0
2016-Jun-23 00:34N 38°01' E 023°36'0 0.0
2016-Jun-22 23:33N 38°01' E 023°36'0 0.0
2016-Jun-22 22:33N 38°01' E 023°36'0 0.0
2016-Jun-22 21:34N 38°01' E 023°36'0 0.0
2016-Jun-22 20:33N 38°01' E 023°36'0 0.0
2016-Jun-22 19:34N 38°01' E 023°36'0 0.0
2016-Jun-22 18:34N 38°01' E 023°36'0 0.0
2016-Jun-22 17:34N 38°01' E 023°36'0 0.0
2016-Jun-22 16:34N 38°01' E 023°36'0 0.0
2016-Jun-22 15:34N 38°01' E 023°36'0 0.0
2016-Jun-22 14:34N 38°01' E 023°36'0 0.0
2016-Jun-22 13:34N 38°01' E 023°36'0 0.0
2016-Jun-22 12:33N 38°01' E 023°36'0 0.0
2016-Jun-22 11:34N 38°01' E 023°36'0 0.0
2016-Jun-22 10:33N 38°01' E 023°36'0 0.0
2016-Jun-22 09:34N 38°01' E 023°36'0 0.0
2016-Jun-22 08:33N 38°01' E 023°36'3 2.5
2016-Jun-22 07:34N 38°02' E 023°32'2 1.9
2016-Jun-22 06:33N 38°01' E 023°35'2 2.0
2016-Jun-22 05:33N 37°60' E 023°33'4 3.6
2016-Jun-22 04:34N 37°57' E 023°37'0 0.0
2016-Jun-22 03:33N 37°57' E 023°37'0 0.0
2016-Jun-20 17:33N 37°57' E 023°37'0 0.0
2016-Jun-20 16:33N 37°57' E 023°37'0 0.0
2016-Jun-20 15:33N 37°57' E 023°37'0 0.0
2016-Jun-20 14:34N 37°57' E 023°37'0 0.0
2016-Jun-20 13:33N 37°57' E 023°37'0 0.0
2016-Jun-20 12:33N 37°57' E 023°37'0 0.0
2016-Jun-20 11:33N 37°57' E 023°37'0 0.0
2016-Jun-20 10:33N 37°57' E 023°37'0 0.0
2016-Jun-20 09:33N 37°57' E 023°37'5 4.8
2016-Jun-20 08:33N 38°01' E 023°33'1 1.0
2016-Jun-20 07:33N 38°00' E 023°32'1 0.7
2016-Jun-20 06:33N 38°01' E 023°31'5 5.1
2016-Jun-20 05:33N 37°57' E 023°35'1 0.6
2016-Jun-20 04:33N 37°57' E 023°35'0 0.0
2016-Jun-20 03:33N 37°57' E 023°35'0 0.0
2016-Jun-20 02:33N 37°57' E 023°35'0 0.0
2016-Jun-20 01:33N 37°57' E 023°35'0 0.0
2016-Jun-20 00:33N 37°57' E 023°35'1 0.9
2016-Jun-19 23:33N 37°57' E 023°35'1 0.9
2016-Jun-19 22:33N 37°57' E 023°35'0 0.0
2016-Jun-19 21:33N 37°57' E 023°35'0 0.0
2016-Jun-19 20:33N 37°57' E 023°35'0 0.0
2016-Jun-19 19:33N 37°57' E 023°35'0 0.4
2016-Jun-19 18:33N 37°58' E 023°34'0 0.4
2016-Jun-19 17:33N 37°57' E 023°35'0 0.0
2016-Jun-19 16:33N 37°57' E 023°35'0 0.0
2016-Jun-19 15:33N 37°57' E 023°35'0 0.0
2016-Jun-19 14:33N 37°57' E 023°35'0 0.0
2016-Jun-19 13:33N 37°57' E 023°35'0 0.3
2016-Jun-19 12:33N 37°57' E 023°35'2 1.5
2016-Jun-19 11:33N 37°57' E 023°37'2 1.6
2016-Jun-19 10:33N 37°57' E 023°35'0 0.0
2016-Jun-19 09:33N 37°57' E 023°35'0 0.0
2016-Jun-19 08:33N 37°57' E 023°35'0 0.0
2016-Jun-19 07:33N 37°57' E 023°35'1 1.3
2016-Jun-19 06:33N 37°58' E 023°33'1 1.2
2016-Jun-19 05:33N 37°57' E 023°35'0 0.3
2016-Jun-19 04:33N 37°57' E 023°35'0 0.0
2016-Jun-19 03:33N 37°57' E 023°35'0 0.0
2016-Jun-19 02:33N 37°57' E 023°35'0 0.0
2016-Jun-19 01:34N 37°57' E 023°35'0 0.0
2016-Jun-19 00:33N 37°57' E 023°35'0 0.0
2016-Jun-18 23:33N 37°57' E 023°35'0 0.0
2016-Jun-18 22:34N 37°57' E 023°35'0 0.0
2016-Jun-18 21:33N 37°57' E 023°35'0 0.0
2016-Jun-18 20:33N 37°57' E 023°35'1 0.9
2016-Jun-18 19:33N 37°57' E 023°36'1 0.9
2016-Jun-18 18:33N 37°57' E 023°35'4 4.3
2016-Jun-18 17:34N 38°01' E 023°35'0 0.1
2016-Jun-18 16:33N 38°01' E 023°35'0 0.0
2016-Jun-18 15:33N 38°01' E 023°35'1 1.2
2016-Jun-18 14:33N 38°01' E 023°34'1 1.0
2016-Jun-18 13:33N 38°00' E 023°33'4 0.3
2016-Jun-17 23:33N 37°57' E 023°37'0 0.0
2016-Jun-17 22:33N 37°57' E 023°37'0 0.0
2016-Jun-17 21:33N 37°57' E 023°37'2 1.6
2016-Jun-17 20:33N 37°56' E 023°36'2 1.6
2016-Jun-17 19:33N 37°57' E 023°37'0 0.0
2016-Jun-17 18:33N 37°57' E 023°37'0 0.0
2016-Jun-17 17:33N 37°57' E 023°37'0 0.0
2016-Jun-17 16:33N 37°57' E 023°37'1 1.3
2016-Jun-17 15:33N 37°57' E 023°35'5 4.6
2016-Jun-17 14:33N 38°02' E 023°33'5 4.9
2016-Jun-17 13:33N 37°57' E 023°35'1 1.1
2016-Jun-17 12:33N 37°57' E 023°37'2 1.7
2016-Jun-17 11:33N 37°57' E 023°35'2 0.2
2016-Jun-17 02:32N 37°57' E 023°37'0 0.0
2016-Jun-17 01:33N 37°57' E 023°37'0 0.0
2016-Jun-17 00:33N 37°57' E 023°37'1 0.8
2016-Jun-16 23:33N 37°57' E 023°36'0 0.0
2016-Jun-16 22:33N 37°57' E 023°36'  
Track history (hours):
 
Tides and Currents Weather Stations Pressure Air Temp Water Temp Dewpoint Dewpoint Depression Visibility Wind Speed Wind Dir Waves Ship Positions

Ifestos I

Last reported at 2016-Jun-26 22:33 UTC. Time now 2016-Jun-26 22:45 UTC.
Position N 38°01' E 023°36'.

Length 30 m.

Type: Tug. MMSI: 237070500.

Date/timePositionNaut miles runAvg speedWind from/ knotsBaromVisibWave heightAir tempDewpointWater temp
2016-Jun-26 22:33N 38°01' E 023°36'0 0.0
2016-Jun-26 21:33N 38°01' E 023°36'0 0.0
2016-Jun-26 20:33N 38°01' E 023°36'0 0.0
2016-Jun-26 19:33N 38°01' E 023°36'0 0.0
2016-Jun-26 18:33N 38°01' E 023°36'0 0.0
2016-Jun-26 17:33N 38°01' E 023°36'0 0.0
2016-Jun-26 16:33N 38°01' E 023°36'2 1.6
2016-Jun-26 15:33N 38°01' E 023°33'1 1.1
2016-Jun-26 14:34N 38°02' E 023°32'0 0.3
2016-Jun-26 13:33N 38°02' E 023°32'4 4.2
2016-Jun-26 12:33N 37°58' E 023°33'0 0.0
2016-Jun-26 11:34N 37°58' E 023°33'0 0.0
2016-Jun-26 10:33N 37°58' E 023°33'2 1.7
2016-Jun-26 09:33N 37°57' E 023°35'1 1.2
2016-Jun-26 08:33N 37°57' E 023°37'0 0.0
2016-Jun-26 07:33N 37°57' E 023°37'4 4.0
2016-Jun-26 06:33N 38°00' E 023°33'1 1.1
2016-Jun-26 05:33N 38°01' E 023°32'5 5.0
2016-Jun-26 04:33N 37°57' E 023°36'1 0.0
2016-Jun-24 13:33N 37°57' E 023°37'0 0.0
2016-Jun-24 12:33N 37°57' E 023°37'0 0.0
2016-Jun-24 11:33N 37°57' E 023°37'0 0.0
2016-Jun-24 10:33N 37°57' E 023°37'0 0.0
2016-Jun-24 09:33N 37°57' E 023°37'1 0.6
2016-Jun-24 08:33N 37°57' E 023°36'1 0.7
2016-Jun-24 07:33N 37°56' E 023°36'1 0.3
2016-Jun-24 04:33N 37°57' E 023°35'1 1.4
2016-Jun-24 03:33N 37°57' E 023°37'0 0.0
2016-Jun-23 16:34N 37°57' E 023°37'0 0.0
2016-Jun-23 15:34N 37°57' E 023°37'0 0.0
2016-Jun-23 14:34N 37°57' E 023°37'0 0.0
2016-Jun-23 13:33N 37°57' E 023°37'0 0.0
2016-Jun-23 12:33N 37°57' E 023°37'0 0.0
2016-Jun-23 11:34N 37°57' E 023°37'0 0.0
2016-Jun-23 10:34N 37°57' E 023°37'3 2.6
2016-Jun-23 09:34N 37°57' E 023°33'4 4.4
2016-Jun-23 08:33N 38°01' E 023°36'0 0.0
2016-Jun-23 07:34N 38°01' E 023°36'0 0.0
2016-Jun-23 05:33N 38°01' E 023°36'0 0.0
2016-Jun-23 04:34N 38°01' E 023°36'0 0.0
2016-Jun-23 03:34N 38°01' E 023°36'0 0.0
2016-Jun-23 02:34N 38°01' E 023°36'0 0.0
2016-Jun-23 01:34N 38°01' E 023°36'0 0.0
2016-Jun-23 00:34N 38°01' E 023°36'0 0.0
2016-Jun-22 23:33N 38°01' E 023°36'0 0.0
2016-Jun-22 22:33N 38°01' E 023°36'0 0.0
2016-Jun-22 21:34N 38°01' E 023°36'0 0.0
2016-Jun-22 20:33N 38°01' E 023°36'0 0.0
2016-Jun-22 19:34N 38°01' E 023°36'0 0.0
2016-Jun-22 18:34N 38°01' E 023°36'0 0.0
2016-Jun-22 17:34N 38°01' E 023°36'0 0.0
2016-Jun-22 16:34N 38°01' E 023°36'0 0.0
2016-Jun-22 15:34N 38°01' E 023°36'0 0.0
2016-Jun-22 14:34N 38°01' E 023°36'0 0.0
2016-Jun-22 13:34N 38°01' E 023°36'0 0.0
2016-Jun-22 12:33N 38°01' E 023°36'0 0.0
2016-Jun-22 11:34N 38°01' E 023°36'0 0.0
2016-Jun-22 10:33N 38°01' E 023°36'0 0.0
2016-Jun-22 09:34N 38°01' E 023°36'0 0.0
2016-Jun-22 08:33N 38°01' E 023°36'3 2.5
2016-Jun-22 07:34N 38°02' E 023°32'2 1.9
2016-Jun-22 06:33N 38°01' E 023°35'2 2.0
2016-Jun-22 05:33N 37°60' E 023°33'4 3.6
2016-Jun-22 04:34N 37°57' E 023°37'0 0.0
2016-Jun-22 03:33N 37°57' E 023°37'0 0.0
2016-Jun-20 17:33N 37°57' E 023°37'0 0.0
2016-Jun-20 16:33N 37°57' E 023°37'0 0.0
2016-Jun-20 15:33N 37°57' E 023°37'0 0.0
2016-Jun-20 14:34N 37°57' E 023°37'0 0.0
2016-Jun-20 13:33N 37°57' E 023°37'0 0.0
2016-Jun-20 12:33N 37°57' E 023°37'0 0.0
2016-Jun-20 11:33N 37°57' E 023°37'0 0.0
2016-Jun-20 10:33N 37°57' E 023°37'0 0.0
2016-Jun-20 09:33N 37°57' E 023°37'5 4.8
2016-Jun-20 08:33N 38°01' E 023°33'1 1.0
2016-Jun-20 07:33N 38°00' E 023°32'1 0.7
2016-Jun-20 06:33N 38°01' E 023°31'5 5.1
2016-Jun-20 05:33N 37°57' E 023°35'1 0.6
2016-Jun-20 04:33N 37°57' E 023°35'0 0.0
2016-Jun-20 03:33N 37°57' E 023°35'0 0.0
2016-Jun-20 02:33N 37°57' E 023°35'0 0.0
2016-Jun-20 01:33N 37°57' E 023°35'0 0.0
2016-Jun-20 00:33N 37°57' E 023°35'1 0.9
2016-Jun-19 23:33N 37°57' E 023°35'1 0.9
2016-Jun-19 22:33N 37°57' E 023°35'0 0.0
2016-Jun-19 21:33N 37°57' E 023°35'0 0.0
2016-Jun-19 20:33N 37°57' E 023°35'0 0.0
2016-Jun-19 19:33N 37°57' E 023°35'0 0.4
2016-Jun-19 18:33N 37°58' E 023°34'0 0.4
2016-Jun-19 17:33N 37°57' E 023°35'0 0.0
2016-Jun-19 16:33N 37°57' E 023°35'0 0.0
2016-Jun-19 15:33N 37°57' E 023°35'0 0.0
2016-Jun-19 14:33N 37°57' E 023°35'0 0.0
2016-Jun-19 13:33N 37°57' E 023°35'0 0.3
2016-Jun-19 12:33N 37°57' E 023°35'2 1.5
2016-Jun-19 11:33N 37°57' E 023°37'2 1.6
2016-Jun-19 10:33N 37°57' E 023°35'0 0.0
2016-Jun-19 09:33N 37°57' E 023°35'0 0.0
2016-Jun-19 08:33N 37°57' E 023°35'0 0.0
2016-Jun-19 07:33N 37°57' E 023°35'1 1.3
2016-Jun-19 06:33N 37°58' E 023°33'1 1.2
2016-Jun-19 05:33N 37°57' E 023°35'0 0.3
2016-Jun-19 04:33N 37°57' E 023°35'0 0.0
2016-Jun-19 03:33N 37°57' E 023°35'0 0.0
2016-Jun-19 02:33N 37°57' E 023°35'0 0.0
2016-Jun-19 01:34N 37°57' E 023°35'0 0.0
2016-Jun-19 00:33N 37°57' E 023°35'0 0.0
2016-Jun-18 23:33N 37°57' E 023°35'0 0.0
2016-Jun-18 22:34N 37°57' E 023°35'0 0.0
2016-Jun-18 21:33N 37°57' E 023°35'0 0.0
2016-Jun-18 20:33N 37°57' E 023°35'1 0.9
2016-Jun-18 19:33N 37°57' E 023°36'1 0.9
2016-Jun-18 18:33N 37°57' E 023°35'4 4.3
2016-Jun-18 17:34N 38°01' E 023°35'0 0.1
2016-Jun-18 16:33N 38°01' E 023°35'0 0.0
2016-Jun-18 15:33N 38°01' E 023°35'1 1.2
2016-Jun-18 14:33N 38°01' E 023°34'1 1.0
2016-Jun-18 13:33N 38°00' E 023°33'4 0.3
2016-Jun-17 23:33N 37°57' E 023°37'0 0.0
2016-Jun-17 22:33N 37°57' E 023°37'0 0.0
2016-Jun-17 21:33N 37°57' E 023°37'2 1.6
2016-Jun-17 20:33N 37°56' E 023°36'2 1.6
2016-Jun-17 19:33N 37°57' E 023°37'0 0.0
2016-Jun-17 18:33N 37°57' E 023°37'0 0.0
2016-Jun-17 17:33N 37°57' E 023°37'0 0.0
2016-Jun-17 16:33N 37°57' E 023°37'1 1.3
2016-Jun-17 15:33N 37°57' E 023°35'5 4.6
2016-Jun-17 14:33N 38°02' E 023°33'5 4.9
2016-Jun-17 13:33N 37°57' E 023°35'1 1.1
2016-Jun-17 12:33N 37°57' E 023°37'2 1.7
2016-Jun-17 11:33N 37°57' E 023°35'2 0.2
2016-Jun-17 02:32N 37°57' E 023°37'0 0.0
2016-Jun-17 01:33N 37°57' E 023°37'0 0.0
2016-Jun-17 00:33N 37°57' E 023°37'1 0.8
2016-Jun-16 23:33N 37°57' E 023°36'0 0.0
2016-Jun-16 22:33N 37°57' E 023°36'  

Dump ship's entire track history